createdAt,value
2019-01-04T00:00:03.433Z,1035.3
2019-01-04T00:01:03.387Z,1035.1
2019-01-04T00:02:03.202Z,1035.2
2019-01-04T00:03:04.372Z,1035.2
2019-01-04T00:04:03.070Z,1035.2
2019-01-04T00:05:03.152Z,1035.2
2019-01-04T00:06:03.752Z,1035.2
2019-01-04T00:07:03.950Z,1035.2
2019-01-04T00:08:03.978Z,1035.2
2019-01-04T00:09:03.858Z,1035.2
2019-01-04T00:10:03.330Z,1035.2
2019-01-04T00:11:03.395Z,1035.2
2019-01-04T00:12:03.705Z,1035.2
2019-01-04T00:13:03.537Z,1035.2
2019-01-04T00:14:04.012Z,1035.2
2019-01-04T00:15:03.793Z,1035.3
2019-01-04T00:16:03.603Z,1035.3
2019-01-04T00:17:03.038Z,1035.2
2019-01-04T00:18:03.081Z,1035.3
2019-01-04T00:19:03.873Z,1035.3
2019-01-04T00:20:03.829Z,1035.3
2019-01-04T00:22:03.361Z,1035.3
2019-01-04T00:23:03.304Z,1035.3
2019-01-04T00:24:03.321Z,1035.3
2019-01-04T00:25:03.240Z,1035.2
2019-01-04T00:26:03.797Z,1035.3
2019-01-04T00:27:03.558Z,1035.4
2019-01-04T00:28:03.322Z,1035.4
2019-01-04T00:29:03.290Z,1035.3
2019-01-04T00:30:03.777Z,1035.3
2019-01-04T00:31:03.472Z,1035.3
2019-01-04T00:32:03.179Z,1035.3
2019-01-04T00:33:03.326Z,1035.4
2019-01-04T00:34:03.808Z,1035.4
2019-01-04T00:35:03.474Z,1035.3
2019-01-04T00:36:03.174Z,1035.3
2019-01-04T00:37:03.739Z,1035.4
2019-01-04T00:38:03.711Z,1035.4
2019-01-04T00:39:05.220Z,1035.4
2019-01-04T00:40:03.912Z,1035.3
2019-01-04T00:41:03.284Z,1035.4
2019-01-04T00:42:03.169Z,1035.3
2019-01-04T00:43:03.978Z,1035.3
2019-01-04T00:44:03.337Z,1035.4
2019-01-04T00:45:03.498Z,1035.4
2019-01-04T00:46:03.838Z,1035.4
2019-01-04T00:47:03.377Z,1035.3
2019-01-04T00:48:03.276Z,1035.4
2019-01-04T00:49:03.744Z,1035.5
2019-01-04T00:50:04.221Z,1035.5
2019-01-04T00:51:03.654Z,1035.3
2019-01-04T00:52:03.943Z,1035.4
2019-01-04T00:53:03.512Z,1035.5
2019-01-04T00:54:03.893Z,1035.5
2019-01-04T00:55:03.351Z,1035.5
2019-01-04T00:56:03.673Z,1035.4
2019-01-04T00:57:04.071Z,1035.3
2019-01-04T00:58:03.750Z,1035.3
2019-01-04T00:59:03.248Z,1035.4
2019-01-04T01:00:03.911Z,1035.4
2019-01-04T01:01:03.679Z,1035.5
2019-01-04T01:02:03.307Z,1035.5
2019-01-04T01:03:03.682Z,1035.4
2019-01-04T01:05:03.621Z,1035.4
2019-01-04T01:06:02.780Z,1035.5
2019-01-04T01:07:02.192Z,1035.5
2019-01-04T01:08:03.743Z,1035.6
2019-01-04T01:09:03.205Z,1035.5
2019-01-04T01:10:03.536Z,1035.5
2019-01-04T01:11:03.493Z,1035.4
2019-01-04T01:12:03.795Z,1035.5
2019-01-04T01:13:03.175Z,1035.6
2019-01-04T01:14:03.032Z,1035.6
2019-01-04T01:15:03.207Z,1035.6
2019-01-04T01:16:03.324Z,1035.6
2019-01-04T01:17:03.681Z,1035.6
2019-01-04T01:18:04.104Z,1035.6
2019-01-04T01:19:03.988Z,1035.6
2019-01-04T01:20:04.092Z,1035.6
2019-01-04T01:21:03.197Z,1035.5
2019-01-04T01:22:03.462Z,1035.5
2019-01-04T01:23:02.978Z,1035.6
2019-01-04T01:24:13.172Z,1035.6
2019-01-04T01:25:03.332Z,1035.6
2019-01-04T01:26:03.323Z,1035.6
2019-01-04T01:27:03.956Z,1035.5
2019-01-04T01:28:03.843Z,1035.5
2019-01-04T01:29:03.402Z,1035.5
2019-01-04T01:30:03.425Z,1035.5
2019-01-04T01:31:04.916Z,1035.5
2019-01-04T01:33:03.747Z,1035.6
2019-01-04T01:34:03.220Z,1035.6
2019-01-04T01:35:02.950Z,1035.6
2019-01-04T01:36:03.406Z,1035.6
2019-01-04T01:37:01.954Z,1035.6
2019-01-04T01:38:03.301Z,1035.6
2019-01-04T01:39:03.657Z,1035.6
2019-01-04T01:40:03.936Z,1035.5
2019-01-04T01:41:03.117Z,1035.6
2019-01-04T01:42:03.099Z,1035.6
2019-01-04T01:43:02.923Z,1035.6
2019-01-04T01:44:03.170Z,1035.6
2019-01-04T01:45:03.582Z,1035.6
2019-01-04T01:46:03.158Z,1035.7
2019-01-04T01:47:03.838Z,1035.6
2019-01-04T01:48:03.226Z,1035.7
2019-01-04T01:49:03.877Z,1035.7
2019-01-04T01:50:03.873Z,1035.6
2019-01-04T01:51:03.785Z,1035.6
2019-01-04T01:52:03.599Z,1035.6
2019-01-04T01:53:02.926Z,1035.7
2019-01-04T01:54:02.987Z,1035.7
2019-01-04T01:55:03.007Z,1035.7
2019-01-04T01:56:03.823Z,1035.7
2019-01-04T01:57:03.472Z,1035.7
2019-01-04T01:58:02.647Z,1035.6
2019-01-04T01:59:04.582Z,1035.6
2019-01-04T02:00:03.909Z,1035.9
2019-01-04T02:01:03.962Z,1035.7
2019-01-04T02:02:03.695Z,1035.8
2019-01-04T02:03:03.162Z,1035.7
2019-01-04T02:04:03.306Z,1035.7
2019-01-04T02:05:03.512Z,1035.7
2019-01-04T02:06:03.246Z,1035.8
2019-01-04T02:07:03.907Z,1035.6
2019-01-04T02:08:03.406Z,1035.6
2019-01-04T02:09:07.988Z,1035.6
2019-01-04T02:10:03.814Z,1035.6
2019-01-04T02:11:03.392Z,1035.7
2019-01-04T02:12:02.846Z,1035.7
2019-01-04T02:13:03.726Z,1035.7
2019-01-04T02:14:04.444Z,1035.7
2019-01-04T02:15:03.907Z,1035.7
2019-01-04T02:16:03.698Z,1035.7
2019-01-04T02:17:03.701Z,1035.7
2019-01-04T02:18:03.240Z,1035.7
2019-01-04T02:19:03.631Z,1035.7
2019-01-04T02:20:03.139Z,1035.7
2019-01-04T02:21:03.029Z,1035.7
2019-01-04T02:22:03.444Z,1035.8
2019-01-04T02:23:03.646Z,1035.8
2019-01-04T02:24:02.263Z,1035.6
2019-01-04T02:25:04.076Z,1035.6
2019-01-04T02:26:03.780Z,1035.8
2019-01-04T02:27:03.265Z,1035.7
2019-01-04T02:28:03.887Z,1035.7
2019-01-04T02:29:03.933Z,1035.7
2019-01-04T02:30:03.470Z,1035.7
2019-01-04T02:31:03.785Z,1035.7
2019-01-04T02:32:03.694Z,1035.7
2019-01-04T02:33:03.525Z,1035.7
2019-01-04T02:34:03.146Z,1035.7
2019-01-04T02:35:03.487Z,1035.7
2019-01-04T02:36:03.871Z,1035.7
2019-01-04T02:37:03.841Z,1035.7
2019-01-04T02:38:03.875Z,1035.7
2019-01-04T02:39:03.109Z,1035.7
2019-01-04T02:40:03.687Z,1035.7
2019-01-04T02:41:03.218Z,1035.6
2019-01-04T02:43:03.684Z,1035.6
2019-01-04T02:44:03.628Z,1035.6
2019-01-04T02:45:05.825Z,1035.6
2019-01-04T02:46:02.381Z,1035.6
2019-01-04T02:47:02.873Z,1035.5
2019-01-04T02:48:03.178Z,1035.5
2019-01-04T02:49:03.268Z,1035.5
2019-01-04T02:50:03.388Z,1035.5
2019-01-04T02:51:03.335Z,1035.5
2019-01-04T02:52:04.157Z,1035.5
2019-01-04T02:53:03.567Z,1035.4
2019-01-04T02:54:03.778Z,1035.4
2019-01-04T02:55:03.468Z,1035.4
2019-01-04T02:56:04.077Z,1035.4
2019-01-04T02:57:03.315Z,1035.4
2019-01-04T02:58:03.624Z,1035.4
2019-01-04T02:59:03.789Z,1035.4
2019-01-04T03:00:03.759Z,1035.4
2019-01-04T03:01:03.339Z,1035.4
2019-01-04T03:02:03.361Z,1035.4
2019-01-04T03:03:04.042Z,1035.4
2019-01-04T03:04:03.275Z,1035.4
2019-01-04T03:06:04.176Z,1035.4
2019-01-04T03:07:04.647Z,1035.5
2019-01-04T03:08:03.995Z,1035.4
2019-01-04T03:09:02.639Z,1035.4
2019-01-04T03:11:04.609Z,1035.4
2019-01-04T03:12:05.156Z,1035.4
2019-01-04T03:13:03.988Z,1035.4
2019-01-04T03:14:03.631Z,1035.4
2019-01-04T03:15:03.715Z,1035.4
2019-01-04T03:16:03.800Z,1035.4
2019-01-04T03:17:03.128Z,1035.5
2019-01-04T03:18:04.175Z,1035.4
2019-01-04T03:19:04.116Z,1035.5
2019-01-04T03:20:03.451Z,1035.4
2019-01-04T03:21:03.242Z,1035.4
2019-01-04T03:22:03.347Z,1035.3
2019-01-04T03:23:03.658Z,1035.3
2019-01-04T03:24:03.848Z,1035.3
2019-01-04T03:25:03.546Z,1035.3
2019-01-04T03:26:03.430Z,1035.2
2019-01-04T03:27:03.872Z,1035.3
2019-01-04T03:28:03.359Z,1035.3
2019-01-04T03:29:03.534Z,1035.3
2019-01-04T03:30:03.443Z,1035.3
2019-01-04T03:31:03.321Z,1035.3
2019-01-04T03:32:03.918Z,1035.4
2019-01-04T03:33:03.670Z,1035.3
2019-01-04T03:34:03.098Z,1035.3
2019-01-04T03:35:04.339Z,1035.3
2019-01-04T03:36:03.236Z,1035.5
2019-01-04T03:37:03.018Z,1035.4
2019-01-04T03:38:03.950Z,1035.4
2019-01-04T03:39:03.753Z,1035.5
2019-01-04T03:40:03.154Z,1035.4
2019-01-04T03:41:03.670Z,1035.4
2019-01-04T03:42:03.831Z,1035.3
2019-01-04T03:43:03.782Z,1035.4
2019-01-04T03:44:03.046Z,1035.4
2019-01-04T03:45:04.202Z,1035.4
2019-01-04T03:46:03.408Z,1035.2
2019-01-04T03:47:03.574Z,1035.2
2019-01-04T03:48:03.238Z,1035.4
2019-01-04T03:49:03.343Z,1035.2
2019-01-04T03:50:03.370Z,1035.2
2019-01-04T03:51:03.154Z,1035.1
2019-01-04T03:52:05.858Z,1035.2
2019-01-04T03:53:04.299Z,1035.2
2019-01-04T03:54:03.754Z,1035.1
2019-01-04T03:55:03.347Z,1035.2
2019-01-04T03:56:03.125Z,1035.2
2019-01-04T03:57:03.205Z,1035.2
2019-01-04T03:58:03.185Z,1035.2
2019-01-04T03:59:03.634Z,1035.2
2019-01-04T04:01:03.962Z,1035.2
2019-01-04T04:02:03.496Z,1035.1
2019-01-04T04:03:03.285Z,1035.1
2019-01-04T04:04:03.208Z,1035.2
2019-01-04T04:05:04.040Z,1035.2
2019-01-04T04:06:03.110Z,1035.2
2019-01-04T04:07:03.220Z,1035.1
2019-01-04T04:08:03.408Z,1035.2
2019-01-04T04:09:03.932Z,1035.3
2019-01-04T04:10:03.724Z,1035.3
2019-01-04T04:11:03.724Z,1035.3
2019-01-04T04:12:03.736Z,1035.4
2019-01-04T04:13:03.226Z,1035.2
2019-01-04T04:14:03.513Z,1035.4
2019-01-04T04:15:03.433Z,1035.4
2019-01-04T04:16:03.440Z,1035.4
2019-01-04T04:17:04.298Z,1035.4
2019-01-04T04:18:03.777Z,1035.4
2019-01-04T04:19:03.317Z,1035.3
2019-01-04T04:20:04.081Z,1035.3
2019-01-04T04:21:04.323Z,1035.3
2019-01-04T04:22:04.982Z,1035.3
2019-01-04T04:23:03.472Z,1035.3
2019-01-04T04:24:03.769Z,1035.3
2019-01-04T04:25:03.543Z,1035.4
2019-01-04T04:27:03.108Z,1035.4
2019-01-04T04:28:03.355Z,1035.4
2019-01-04T04:29:03.178Z,1035.3
2019-01-04T04:30:03.784Z,1035.3
2019-01-04T04:31:03.726Z,1035.4
2019-01-04T04:33:03.985Z,1035.3
2019-01-04T04:34:04.004Z,1035.3
2019-01-04T04:35:03.532Z,1035.3
2019-01-04T04:36:03.524Z,1035.2
2019-01-04T04:37:03.849Z,1035.3
2019-01-04T04:38:03.737Z,1035.2
2019-01-04T04:39:03.583Z,1035.3
2019-01-04T04:40:03.588Z,1035.3
2019-01-04T04:41:04.078Z,1035.4
2019-01-04T04:42:03.075Z,1035.4
2019-01-04T04:43:03.113Z,1035.4
2019-01-04T04:44:03.413Z,1035.3
2019-01-04T04:45:03.608Z,1035.4
2019-01-04T04:46:03.111Z,1035.3
2019-01-04T04:47:03.315Z,1035.3
2019-01-04T04:48:03.859Z,1035.3
2019-01-04T04:49:03.376Z,1035.3
2019-01-04T04:50:03.108Z,1035.3
2019-01-04T04:51:03.209Z,1035.5
2019-01-04T04:52:02.993Z,1035.5
2019-01-04T04:53:03.024Z,1035.4
2019-01-04T04:54:03.922Z,1035.4
2019-01-04T04:55:04.012Z,1035.4
2019-01-04T04:56:03.636Z,1035.5
2019-01-04T04:57:03.149Z,1035.4
2019-01-04T04:58:03.294Z,1035.4
2019-01-04T04:59:03.002Z,1035.4
2019-01-04T05:00:03.838Z,1035.5
2019-01-04T05:01:03.838Z,1035.6
2019-01-04T05:02:03.486Z,1035.6
2019-01-04T05:03:03.051Z,1035.6
2019-01-04T05:04:04.042Z,1035.6
2019-01-04T05:05:04.048Z,1035.6
2019-01-04T05:06:03.773Z,1035.6
2019-01-04T05:07:03.939Z,1035.6
2019-01-04T05:08:03.668Z,1035.7
2019-01-04T05:09:03.088Z,1035.7
2019-01-04T05:10:03.633Z,1035.7
2019-01-04T05:11:03.598Z,1035.7
2019-01-04T05:12:03.517Z,1035.7
2019-01-04T05:13:03.607Z,1035.7
2019-01-04T05:14:04.304Z,1035.7
2019-01-04T05:15:06.606Z,1035.6
2019-01-04T05:17:03.945Z,1035.7
2019-01-04T05:18:03.656Z,1035.6
2019-01-04T05:19:03.222Z,1035.7
2019-01-04T05:20:03.269Z,1035.6
2019-01-04T05:21:03.030Z,1035.6
2019-01-04T05:22:03.486Z,1035.6
2019-01-04T05:23:03.288Z,1035.6
2019-01-04T05:25:04.146Z,1035.5
2019-01-04T05:26:03.182Z,1035.5
2019-01-04T05:27:03.697Z,1035.5
2019-01-04T05:28:03.439Z,1035.5
2019-01-04T05:29:03.842Z,1035.5
2019-01-04T05:30:04.062Z,1035.5
2019-01-04T05:31:03.783Z,1035.4
2019-01-04T05:32:03.997Z,1035.4
2019-01-04T05:33:03.718Z,1035.4
2019-01-04T05:34:03.858Z,1035.5
2019-01-04T05:35:03.743Z,1035.4
2019-01-04T05:36:02.352Z,1035.5
2019-01-04T05:37:03.411Z,1035.5
2019-01-04T05:38:02.972Z,1035.5
2019-01-04T05:39:03.665Z,1035.5
2019-01-04T05:40:03.265Z,1035.5
2019-01-04T05:41:03.733Z,1035.5
2019-01-04T05:42:03.636Z,1035.5
2019-01-04T05:43:03.894Z,1035.6
2019-01-04T05:44:02.955Z,1035.5
2019-01-04T05:45:03.245Z,1035.4
2019-01-04T05:46:03.779Z,1035.5
2019-01-04T05:47:03.236Z,1035.5
2019-01-04T05:48:03.523Z,1035.5
2019-01-04T05:49:03.507Z,1035.5
2019-01-04T05:50:03.227Z,1035.4
2019-01-04T05:51:03.532Z,1035.5
2019-01-04T05:52:03.129Z,1035.5
2019-01-04T05:53:03.501Z,1035.5
2019-01-04T05:54:03.413Z,1035.5
2019-01-04T05:55:03.813Z,1035.5
2019-01-04T05:56:04.393Z,1035.5
2019-01-04T05:57:03.366Z,1035.5
2019-01-04T05:59:03.399Z,1035.5
2019-01-04T06:00:03.667Z,1035.6
2019-01-04T06:01:03.277Z,1035.4
2019-01-04T06:02:03.396Z,1035.6
2019-01-04T06:03:03.110Z,1035.6
2019-01-04T06:04:03.544Z,1035.7
2019-01-04T06:05:03.555Z,1035.6
2019-01-04T06:06:03.391Z,1035.6
2019-01-04T06:07:04.049Z,1035.7
2019-01-04T06:08:03.644Z,1035.7
2019-01-04T06:09:05.171Z,1035.7
2019-01-04T06:10:03.356Z,1035.6
2019-01-04T06:11:03.742Z,1035.6
2019-01-04T06:12:03.233Z,1035.6
2019-01-04T06:13:03.239Z,1035.6
2019-01-04T06:14:03.283Z,1035.6
2019-01-04T06:15:04.258Z,1035.6
2019-01-04T06:16:03.809Z,1035.6
2019-01-04T06:17:03.624Z,1035.6
2019-01-04T06:18:03.147Z,1035.6
2019-01-04T06:19:04.828Z,1035.6
2019-01-04T06:20:04.143Z,1035.6
2019-01-04T06:21:03.452Z,1035.6
2019-01-04T06:22:03.042Z,1035.5
2019-01-04T06:23:03.894Z,1035.6
2019-01-04T06:24:03.503Z,1035.6
2019-01-04T06:25:03.420Z,1035.6
2019-01-04T06:26:03.872Z,1035.6
2019-01-04T06:27:03.995Z,1035.6
2019-01-04T06:28:03.201Z,1035.6
2019-01-04T06:29:03.475Z,1035.6
2019-01-04T06:30:03.130Z,1035.7
2019-01-04T06:31:03.965Z,1035.6
2019-01-04T06:32:04.110Z,1035.6
2019-01-04T06:33:03.608Z,1035.6
2019-01-04T06:34:03.410Z,1035.7
2019-01-04T06:35:06.848Z,1035.6
2019-01-04T06:36:03.398Z,1035.6
2019-01-04T06:37:02.626Z,1035.6
2019-01-04T06:38:03.269Z,1035.6
2019-01-04T06:39:04.681Z,1035.6
2019-01-04T06:40:03.407Z,1035.7
2019-01-04T06:41:04.055Z,1035.8
2019-01-04T06:42:03.134Z,1035.5
2019-01-04T06:43:03.865Z,1035.5
2019-01-04T06:44:03.407Z,1035.6
2019-01-04T06:45:03.112Z,1035.6
2019-01-04T06:46:03.238Z,1035.6
2019-01-04T06:47:03.139Z,1035.6
2019-01-04T06:48:03.840Z,1035.6
2019-01-04T06:49:03.509Z,1035.6
2019-01-04T06:50:03.369Z,1035.8
2019-01-04T06:51:04.951Z,1035.8
2019-01-04T06:52:03.059Z,1035.7
2019-01-04T06:53:03.928Z,1035.7
2019-01-04T06:54:03.973Z,1035.8
2019-01-04T06:55:03.912Z,1035.8
2019-01-04T06:56:03.290Z,1035.7
2019-01-04T06:57:03.141Z,1035.7
2019-01-04T06:58:04.316Z,1035.7
2019-01-04T06:59:03.547Z,1035.8
2019-01-04T07:00:03.063Z,1035.8
2019-01-04T07:01:03.317Z,1035.8
2019-01-04T07:02:03.817Z,1035.7
2019-01-04T07:03:03.077Z,1035.8
2019-01-04T07:04:03.190Z,1035.7
2019-01-04T07:05:03.489Z,1035.7
2019-01-04T07:06:02.864Z,1035.7
2019-01-04T07:07:03.688Z,1035.7
2019-01-04T07:08:03.709Z,1035.7
2019-01-04T07:09:03.261Z,1035.7
2019-01-04T07:10:03.307Z,1035.8
2019-01-04T07:11:04.043Z,1035.8
2019-01-04T07:12:03.844Z,1035.8
2019-01-04T07:13:03.851Z,1035.8
2019-01-04T07:14:03.601Z,1035.8
2019-01-04T07:15:03.469Z,1035.8
2019-01-04T07:16:03.535Z,1035.8
2019-01-04T07:17:03.157Z,1035.8
2019-01-04T07:18:03.220Z,1035.8
2019-01-04T07:19:03.373Z,1035.9
2019-01-04T07:20:03.526Z,1035.9
2019-01-04T07:21:03.358Z,1035.9
2019-01-04T07:22:03.260Z,1035.8
2019-01-04T07:23:03.258Z,1035.9
2019-01-04T07:24:05.718Z,1035.9
2019-01-04T07:25:03.470Z,1035.9
2019-01-04T07:26:03.939Z,1035.9
2019-01-04T07:27:03.897Z,1035.9
2019-01-04T07:28:03.337Z,1035.9
2019-01-04T07:29:03.899Z,1036
2019-01-04T07:30:03.563Z,1036
2019-01-04T07:31:03.179Z,1035.9
2019-01-04T07:32:04.705Z,1035.9
2019-01-04T07:33:03.204Z,1035.9
2019-01-04T07:34:03.795Z,1036
2019-01-04T07:35:03.800Z,1035.9
2019-01-04T07:36:03.810Z,1035.9
2019-01-04T07:37:03.763Z,1036
2019-01-04T07:38:03.381Z,1036
2019-01-04T07:39:03.773Z,1036
2019-01-04T07:40:03.480Z,1036
2019-01-04T07:41:03.517Z,1035.9
2019-01-04T07:42:03.960Z,1035.9
2019-01-04T07:43:04.236Z,1035.9
2019-01-04T07:44:03.749Z,1035.9
2019-01-04T07:45:03.062Z,1035.9
2019-01-04T07:46:03.750Z,1035.9
2019-01-04T07:47:03.284Z,1035.9
2019-01-04T07:48:03.888Z,1035.9
2019-01-04T07:49:03.687Z,1035.9
2019-01-04T07:50:03.230Z,1035.9
2019-01-04T07:51:02.061Z,1035.9
2019-01-04T07:52:03.891Z,1035.9
2019-01-04T07:53:03.347Z,1036
2019-01-04T07:54:04.003Z,1035.8
2019-01-04T07:55:03.472Z,1035.8
2019-01-04T07:56:03.929Z,1036
2019-01-04T07:57:03.043Z,1035.8
2019-01-04T07:58:03.812Z,1035.9
2019-01-04T07:59:03.887Z,1035.9
2019-01-04T08:00:03.524Z,1035.9
2019-01-04T08:01:03.533Z,1035.9
2019-01-04T08:02:03.980Z,1035.9
2019-01-04T08:03:03.610Z,1035.9
2019-01-04T08:04:03.029Z,1035.9
2019-01-04T08:05:03.612Z,1035.9
2019-01-04T08:06:03.563Z,1036
2019-01-04T08:07:03.334Z,1036
2019-01-04T08:08:03.294Z,1036
2019-01-04T08:09:03.945Z,1035.9
2019-01-04T08:10:04.599Z,1035.9
2019-01-04T08:11:03.765Z,1036
2019-01-04T08:12:03.882Z,1035.9
2019-01-04T08:13:01.866Z,1036
2019-01-04T08:14:03.287Z,1035.9
2019-01-04T08:15:03.815Z,1036
2019-01-04T08:16:04.061Z,1036
2019-01-04T08:17:03.496Z,1036
2019-01-04T08:18:03.545Z,1036
2019-01-04T08:19:03.380Z,1036
2019-01-04T08:20:04.005Z,1036.2
2019-01-04T08:21:04.195Z,1036.2
2019-01-04T08:22:03.731Z,1036
2019-01-04T08:23:03.500Z,1036
2019-01-04T08:24:03.266Z,1036
2019-01-04T08:25:03.443Z,1036
2019-01-04T08:26:03.775Z,1036
2019-01-04T08:27:06.205Z,1036
2019-01-04T08:28:03.824Z,1036
2019-01-04T08:29:03.553Z,1035.9
2019-01-04T08:30:03.507Z,1035.9
2019-01-04T08:31:03.737Z,1035.8
2019-01-04T08:32:03.918Z,1035.9
2019-01-04T08:33:03.532Z,1035.9
2019-01-04T08:34:03.723Z,1035.9
2019-01-04T08:35:03.869Z,1035.9
2019-01-04T08:36:03.613Z,1036.1
2019-01-04T08:37:03.955Z,1036
2019-01-04T08:38:03.488Z,1036
2019-01-04T08:39:03.469Z,1036.1
2019-01-04T08:40:03.444Z,1036
2019-01-04T08:41:03.654Z,1036.1
2019-01-04T08:42:03.252Z,1036.1
2019-01-04T08:43:03.144Z,1036.1
2019-01-04T08:44:03.842Z,1036.1
2019-01-04T08:45:04.057Z,1036.1
2019-01-04T08:46:03.642Z,1036.1
2019-01-04T08:48:03.609Z,1036.1
2019-01-04T08:49:02.919Z,1036.1
2019-01-04T08:50:03.885Z,1036.1
2019-01-04T08:51:02.407Z,1036
2019-01-04T08:52:03.831Z,1036.1
2019-01-04T08:53:02.182Z,1036.1
2019-01-04T08:54:03.267Z,1036.1
2019-01-04T08:55:03.265Z,1036.1
2019-01-04T08:56:03.604Z,1036.1
2019-01-04T08:57:03.247Z,1036.2
2019-01-04T08:58:03.368Z,1036.1
2019-01-04T08:59:03.978Z,1036.2
2019-01-04T09:00:04.900Z,1036.3
2019-01-04T09:01:03.387Z,1036.3
2019-01-04T09:02:03.637Z,1036.2
2019-01-04T09:03:03.277Z,1036.3
2019-01-04T09:04:03.388Z,1036.3
2019-01-04T09:05:03.043Z,1036.3
2019-01-04T09:06:03.024Z,1036.4
2019-01-04T09:07:03.426Z,1036.4
2019-01-04T09:08:03.912Z,1036.4
2019-01-04T09:09:03.471Z,1036.4
2019-01-04T09:10:03.848Z,1036.4
2019-01-04T09:11:02.190Z,1036.5
2019-01-04T09:12:03.925Z,1036.5
2019-01-04T09:13:03.085Z,1036.5
2019-01-04T09:14:03.786Z,1036.4
2019-01-04T09:15:03.585Z,1036.4
2019-01-04T09:16:03.168Z,1036.6
2019-01-04T09:17:03.034Z,1036.4
2019-01-04T09:18:03.140Z,1036.5
2019-01-04T09:19:03.190Z,1036.4
2019-01-04T09:20:03.633Z,1036.5
2019-01-04T09:21:03.518Z,1036.6
2019-01-04T09:22:05.212Z,1036.4
2019-01-04T09:23:03.331Z,1036.4
2019-01-04T09:24:03.383Z,1036.5
2019-01-04T09:25:03.123Z,1036.5
2019-01-04T09:26:03.497Z,1036.5
2019-01-04T09:27:03.234Z,1036.5
2019-01-04T09:28:03.280Z,1036.4
2019-01-04T09:29:04.105Z,1036.4
2019-01-04T09:30:04.645Z,1036.3
2019-01-04T09:31:03.288Z,1036.4
2019-01-04T09:32:03.657Z,1036.4
2019-01-04T09:33:03.957Z,1036.1
2019-01-04T09:34:03.380Z,1036.1
2019-01-04T09:35:02.926Z,1036.1
2019-01-04T09:36:03.211Z,1036.1
2019-01-04T09:37:03.840Z,1036.2
2019-01-04T09:38:03.270Z,1036.2
2019-01-04T09:39:03.835Z,1036
2019-01-04T09:40:03.637Z,1036.1
2019-01-04T09:41:03.269Z,1036.1
2019-01-04T09:42:03.468Z,1036.2
2019-01-04T09:43:02.257Z,1036.2
2019-01-04T09:44:03.873Z,1036.2
2019-01-04T09:45:03.627Z,1036
2019-01-04T09:46:03.286Z,1036.1
2019-01-04T09:47:03.564Z,1036.1
2019-01-04T09:48:03.195Z,1036.1
2019-01-04T09:49:03.408Z,1036
2019-01-04T09:50:04.112Z,1035.9
2019-01-04T09:51:03.620Z,1035.9
2019-01-04T09:52:03.819Z,1036
2019-01-04T09:53:03.630Z,1036
2019-01-04T09:54:04.002Z,1035.8
2019-01-04T09:55:04.101Z,1035.8
2019-01-04T09:56:03.059Z,1035.9
2019-01-04T09:57:03.745Z,1035.9
2019-01-04T09:58:03.605Z,1035.9
2019-01-04T09:59:03.148Z,1035.8
2019-01-04T10:00:03.481Z,1035.8
2019-01-04T10:01:04.335Z,1035.8
2019-01-04T10:02:03.081Z,1035.9
2019-01-04T10:03:03.923Z,1035.8
2019-01-04T10:04:03.397Z,1035.8
2019-01-04T10:06:03.653Z,1035.7
2019-01-04T10:07:03.448Z,1035.7
2019-01-04T10:08:03.457Z,1035.6
2019-01-04T10:09:03.850Z,1035.6
2019-01-04T10:10:03.242Z,1035.5
2019-01-04T10:11:03.483Z,1035.6
2019-01-04T10:12:03.513Z,1035.5
2019-01-04T10:13:05.760Z,1035.5
2019-01-04T10:14:03.724Z,1035.5
2019-01-04T10:15:03.789Z,1035.5
2019-01-04T10:16:03.183Z,1035.5
2019-01-04T10:17:03.599Z,1035.5
2019-01-04T10:18:03.755Z,1035.5
2019-01-04T10:20:03.750Z,1035.4
2019-01-04T10:21:04.009Z,1035.4
2019-01-04T10:22:02.195Z,1035.5
2019-01-04T10:23:03.584Z,1035.5
2019-01-04T10:24:04.050Z,1035.5
2019-01-04T10:25:03.107Z,1035.4
2019-01-04T10:26:02.951Z,1035.4
2019-01-04T10:27:03.637Z,1035.3
2019-01-04T10:28:03.723Z,1035.4
2019-01-04T10:29:03.848Z,1035.3
2019-01-04T10:30:04.427Z,1035.2
2019-01-04T10:31:04.561Z,1035.3
2019-01-04T10:32:03.906Z,1035.3
2019-01-04T10:33:03.048Z,1035.3
2019-01-04T10:34:03.534Z,1035.2
2019-01-04T10:35:03.211Z,1035.1
2019-01-04T10:36:03.348Z,1035.1
2019-01-04T10:37:04.048Z,1035.1
2019-01-04T10:38:03.776Z,1035.1
2019-01-04T10:39:03.898Z,1035.1
2019-01-04T10:40:03.703Z,1035.1
2019-01-04T10:41:03.451Z,1035
2019-01-04T10:42:03.576Z,1035
2019-01-04T10:43:03.738Z,1035
2019-01-04T10:44:03.927Z,1035.1
2019-01-04T10:46:03.068Z,1035
2019-01-04T10:47:03.257Z,1035
2019-01-04T10:48:02.183Z,1034.9
2019-01-04T10:49:03.430Z,1034.9
2019-01-04T10:50:03.819Z,1035
2019-01-04T10:51:04.086Z,1034.9
2019-01-04T10:52:03.935Z,1034.9
2019-01-04T10:53:03.620Z,1034.9
2019-01-04T10:54:03.696Z,1034.9
2019-01-04T10:55:03.416Z,1034.9
2019-01-04T10:56:03.448Z,1034.8
2019-01-04T10:57:03.174Z,1034.8
2019-01-04T10:58:03.437Z,1034.8
2019-01-04T10:59:04.373Z,1034.8
2019-01-04T11:00:03.609Z,1035
2019-01-04T11:01:04.122Z,1035
2019-01-04T11:02:03.707Z,1034.8
2019-01-04T11:03:03.362Z,1034.8
2019-01-04T11:04:03.978Z,1034.8
2019-01-04T11:05:04.158Z,1034.8
2019-01-04T11:06:03.095Z,1034.8
2019-01-04T11:08:03.687Z,1034.8
2019-01-04T11:09:03.987Z,1034.8
2019-01-04T11:11:04.111Z,1034.7
2019-01-04T11:12:03.804Z,1034.7
2019-01-04T11:13:02.409Z,1035
2019-01-04T11:14:03.714Z,1035
2019-01-04T11:15:03.441Z,1034.8
2019-01-04T11:16:02.990Z,1034.8
2019-01-04T11:17:03.090Z,1034.7
2019-01-04T11:18:10.417Z,1034.7
2019-01-04T11:19:04.003Z,1034.7
2019-01-04T11:20:05.318Z,1034.7
2019-01-04T11:22:03.372Z,1034.8
2019-01-04T11:23:03.789Z,1034.8
2019-01-04T11:24:04.040Z,1034.7
2019-01-04T11:25:03.321Z,1034.8
2019-01-04T11:26:03.465Z,1034.8
2019-01-04T11:27:03.453Z,1034.8
2019-01-04T11:28:03.718Z,1034.8
2019-01-04T11:29:07.278Z,1034.8
2019-01-04T11:30:05.903Z,1034.7
2019-01-04T11:31:03.424Z,1034.8
2019-01-04T11:32:03.797Z,1034.8
2019-01-04T11:33:03.940Z,1034.8
2019-01-04T11:34:03.036Z,1034.8
2019-01-04T11:35:03.628Z,1034.7
2019-01-04T11:38:03.668Z,1034.7
2019-01-04T11:39:03.659Z,1034.8
2019-01-04T11:40:03.394Z,1034.8
2019-01-04T11:41:03.502Z,1034.6
2019-01-04T11:42:03.873Z,1034.7
2019-01-04T11:43:02.183Z,1034.6
2019-01-04T11:44:04.036Z,1034.5
2019-01-04T11:45:03.172Z,1034.5
2019-01-04T11:46:03.783Z,1034.6
2019-01-04T11:47:03.084Z,1034.5
2019-01-04T11:48:02.884Z,1034.5
2019-01-04T11:49:03.562Z,1034.5
2019-01-04T11:50:03.263Z,1034.5
2019-01-04T11:51:03.224Z,1034.4
2019-01-04T11:52:03.951Z,1034.4
2019-01-04T11:53:03.762Z,1034.4
2019-01-04T11:54:03.371Z,1034.4
2019-01-04T11:56:02.934Z,1034.4
2019-01-04T11:57:03.625Z,1034.5
2019-01-04T11:58:05.108Z,1034.5
2019-01-04T11:59:02.529Z,1034.5
2019-01-04T12:00:03.613Z,1034.4
2019-01-04T12:01:03.455Z,1034.3
2019-01-04T12:02:03.403Z,1034.4
2019-01-04T12:03:04.081Z,1034.3
2019-01-04T12:04:03.883Z,1034.3
2019-01-04T12:05:03.238Z,1034.4
2019-01-04T12:06:03.832Z,1034.3
2019-01-04T12:07:03.056Z,1034.3
2019-01-04T12:08:03.977Z,1034.3
2019-01-04T12:09:03.487Z,1034.2
2019-01-04T12:10:03.682Z,1034.2
2019-01-04T12:11:03.819Z,1034.3
2019-01-04T12:12:05.617Z,1034.1
2019-01-04T12:13:03.817Z,1034.2
2019-01-04T12:14:03.604Z,1034.1
2019-01-04T12:15:03.396Z,1034.1
2019-01-04T12:16:03.061Z,1034.1
2019-01-04T12:17:03.849Z,1034.1
2019-01-04T12:18:05.383Z,1034.1
2019-01-04T12:19:03.088Z,1034.1
2019-01-04T12:20:03.875Z,1034.1
2019-01-04T12:22:02.385Z,1034
2019-01-04T12:23:03.653Z,1034.1
2019-01-04T12:25:03.018Z,1034.1
2019-01-04T12:26:03.591Z,1034
2019-01-04T12:27:03.342Z,1033.9
2019-01-04T12:28:04.074Z,1034
2019-01-04T12:29:03.298Z,1033.9
2019-01-04T12:30:03.076Z,1033.9
2019-01-04T12:31:03.855Z,1033.9
2019-01-04T12:32:03.847Z,1033.9
2019-01-04T12:33:04.129Z,1033.9
2019-01-04T12:34:04.247Z,1033.9
2019-01-04T12:35:03.363Z,1033.9
2019-01-04T12:36:03.053Z,1033.8
2019-01-04T12:37:03.344Z,1033.8
2019-01-04T12:38:03.918Z,1033.8
2019-01-04T12:39:04.078Z,1033.8
2019-01-04T12:40:04.489Z,1033.8
2019-01-04T12:41:03.450Z,1033.9
2019-01-04T12:44:03.862Z,1033.9
2019-01-04T12:45:04.621Z,1033.9
2019-01-04T12:46:03.878Z,1033.9
2019-01-04T12:47:03.156Z,1033.9
2019-01-04T12:48:04.220Z,1034
2019-01-04T12:49:03.774Z,1033.9
2019-01-04T12:50:04.475Z,1033.9
2019-01-04T12:51:03.117Z,1033.9
2019-01-04T12:52:04.320Z,1033.9
2019-01-04T12:53:03.262Z,1033.8
2019-01-04T12:54:03.339Z,1033.9
2019-01-04T12:55:03.739Z,1033.9
2019-01-04T12:56:04.240Z,1033.8
2019-01-04T12:57:03.617Z,1033.8